createdAt,value
2018-11-23T00:00:17.313Z,99.99
2018-11-23T00:01:17.277Z,99.99
2018-11-23T00:02:17.307Z,99.99
2018-11-23T00:03:17.263Z,99.99
2018-11-23T00:04:17.280Z,99.99
2018-11-23T00:05:17.283Z,99.99
2018-11-23T00:06:17.276Z,99.99
2018-11-23T00:07:17.293Z,99.99
2018-11-23T00:08:17.270Z,99.99
2018-11-23T00:09:17.241Z,99.99
2018-11-23T00:10:17.224Z,99.99
2018-11-23T00:11:17.213Z,99.99
2018-11-23T00:12:17.207Z,99.99
2018-11-23T00:13:17.207Z,99.99
2018-11-23T00:14:17.185Z,99.99
2018-11-23T00:15:17.196Z,99.99
2018-11-23T00:16:17.166Z,99.99
2018-11-23T00:17:17.168Z,99.99
2018-11-23T00:18:17.183Z,99.99
2018-11-23T00:19:17.171Z,99.99
2018-11-23T00:20:17.142Z,99.99
2018-11-23T00:21:17.150Z,99.99
2018-11-23T00:22:17.135Z,99.99
2018-11-23T00:23:17.134Z,99.99
2018-11-23T00:24:17.138Z,99.99
2018-11-23T00:25:17.114Z,99.99
2018-11-23T00:26:17.110Z,99.99
2018-11-23T00:27:17.108Z,99.99
2018-11-23T00:28:17.069Z,99.99
2018-11-23T00:29:17.124Z,99.99
2018-11-23T00:30:17.086Z,99.99
2018-11-23T00:31:17.069Z,99.99
2018-11-23T00:32:17.061Z,99.99
2018-11-23T00:33:17.054Z,99.99
2018-11-23T00:34:17.039Z,99.99
2018-11-23T00:35:17.044Z,99.99
2018-11-23T00:36:17.027Z,99.99
2018-11-23T00:37:17.014Z,99.99
2018-11-23T00:38:17.055Z,99.99
2018-11-23T00:39:16.999Z,99.99
2018-11-23T00:40:16.991Z,99.99
2018-11-23T00:41:16.982Z,99.99
2018-11-23T00:42:17.004Z,99.99
2018-11-23T00:43:16.955Z,99.99
2018-11-23T00:44:17.022Z,99.99
2018-11-23T00:45:16.970Z,99.99
2018-11-23T00:46:16.957Z,99.99
2018-11-23T00:47:16.939Z,99.99
2018-11-23T00:48:16.942Z,99.99
2018-11-23T00:49:16.951Z,99.99
2018-11-23T00:50:16.927Z,99.99
2018-11-23T00:51:16.928Z,99.99
2018-11-23T00:52:16.902Z,99.99
2018-11-23T00:53:16.911Z,99.99
2018-11-23T00:54:16.913Z,99.99
2018-11-23T00:55:16.869Z,99.99
2018-11-23T00:56:16.877Z,99.99
2018-11-23T00:57:16.897Z,99.99
2018-11-23T00:58:16.878Z,99.99
2018-11-23T00:59:16.855Z,99.99
2018-11-23T01:00:16.881Z,99.99
2018-11-23T01:01:16.847Z,99.99
2018-11-23T01:02:16.841Z,99.99
2018-11-23T01:03:16.828Z,99.99
2018-11-23T01:04:16.841Z,99.99
2018-11-23T01:05:16.833Z,99.99
2018-11-23T01:06:16.820Z,99.99
2018-11-23T01:07:16.803Z,99.99
2018-11-23T01:08:16.782Z,99.99
2018-11-23T01:09:16.779Z,99.99
2018-11-23T01:10:16.786Z,99.99
2018-11-23T01:11:16.749Z,99.99
2018-11-23T01:12:16.784Z,99.99
2018-11-23T01:13:16.758Z,99.99
2018-11-23T01:14:16.756Z,99.99
2018-11-23T01:15:16.739Z,99.99
2018-11-23T01:16:16.741Z,99.99
2018-11-23T01:17:16.726Z,99.99
2018-11-23T01:18:16.732Z,99.99
2018-11-23T01:19:16.771Z,99.99
2018-11-23T01:20:16.685Z,99.99
2018-11-23T01:21:16.690Z,99.99
2018-11-23T01:22:16.719Z,99.99
2018-11-23T01:23:16.690Z,99.99
2018-11-23T01:24:16.673Z,99.99
2018-11-23T01:25:16.685Z,99.99
2018-11-23T01:26:16.658Z,99.99
2018-11-23T01:27:16.635Z,99.99
2018-11-23T01:28:16.663Z,99.99
2018-11-23T01:29:16.629Z,99.99
2018-11-23T01:30:16.646Z,99.99
2018-11-23T01:31:16.595Z,99.99
2018-11-23T01:32:16.674Z,99.99
2018-11-23T01:33:16.612Z,99.99
2018-11-23T01:34:16.607Z,99.99
2018-11-23T01:35:16.595Z,99.99
2018-11-23T01:36:16.584Z,99.99
2018-11-23T01:37:16.555Z,99.99
2018-11-23T01:38:16.582Z,99.99
2018-11-23T01:39:16.569Z,99.99
2018-11-23T01:40:16.540Z,99.99
2018-11-23T01:41:16.563Z,99.99
2018-11-23T01:42:16.548Z,99.99
2018-11-23T01:43:16.544Z,99.99
2018-11-23T01:44:16.578Z,99.99
2018-11-23T01:45:16.528Z,99.99
2018-11-23T01:46:16.506Z,99.99
2018-11-23T01:47:16.803Z,99.99
2018-11-23T01:48:16.492Z,99.99
2018-11-23T01:49:16.503Z,99.99
2018-11-23T01:50:16.470Z,99.99
2018-11-23T01:51:16.520Z,99.99
2018-11-23T01:52:16.506Z,99.99
2018-11-23T01:53:16.456Z,99.99
2018-11-23T01:54:16.445Z,99.99
2018-11-23T01:55:16.452Z,99.99
2018-11-23T01:56:16.485Z,99.99
2018-11-23T01:57:16.419Z,99.99
2018-11-23T01:58:16.423Z,99.99
2018-11-23T01:59:16.388Z,99.99
2018-11-23T02:00:16.396Z,99.99
2018-11-23T02:01:16.386Z,99.99
2018-11-23T02:02:16.448Z,99.99
2018-11-23T02:03:16.418Z,99.99
2018-11-23T02:04:16.389Z,99.99
2018-11-23T02:05:16.408Z,99.99
2018-11-23T02:06:16.371Z,99.99
2018-11-23T02:07:16.362Z,99.99
2018-11-23T02:08:16.489Z,99.99
2018-11-23T02:09:16.386Z,99.99
2018-11-23T02:10:16.350Z,99.99
2018-11-23T02:11:16.318Z,99.99
2018-11-23T02:12:16.298Z,99.99
2018-11-23T02:13:16.331Z,99.99
2018-11-23T02:14:16.295Z,99.99
2018-11-23T02:15:16.308Z,99.99
2018-11-23T02:16:16.286Z,99.99
2018-11-23T02:17:16.281Z,99.99
2018-11-23T02:18:16.260Z,99.99
2018-11-23T02:19:16.349Z,99.99
2018-11-23T02:20:16.274Z,99.99
2018-11-23T02:21:16.252Z,99.99
2018-11-23T02:22:16.274Z,99.99
2018-11-23T02:23:16.226Z,99.99
2018-11-23T02:24:16.305Z,99.99
2018-11-23T02:25:16.197Z,99.99
2018-11-23T02:26:16.206Z,99.99
2018-11-23T02:27:16.242Z,99.99
2018-11-23T02:28:16.195Z,99.99
2018-11-23T02:29:16.327Z,99.99
2018-11-23T02:30:16.161Z,99.99
2018-11-23T02:31:16.167Z,99.99
2018-11-23T02:32:16.202Z,99.99
2018-11-23T02:33:16.147Z,99.99
2018-11-23T02:34:16.139Z,99.99
2018-11-23T02:35:16.188Z,99.99
2018-11-23T02:36:16.116Z,99.99
2018-11-23T02:37:16.139Z,99.99
2018-11-23T02:38:16.140Z,99.99
2018-11-23T02:39:16.136Z,99.99
2018-11-23T02:40:16.196Z,99.99
2018-11-23T02:41:16.130Z,99.99
2018-11-23T02:42:16.075Z,99.99
2018-11-23T02:43:16.092Z,99.99
2018-11-23T02:44:16.064Z,99.99
2018-11-23T02:45:16.107Z,99.99
2018-11-23T02:46:16.040Z,99.99
2018-11-23T02:47:16.055Z,99.99
2018-11-23T02:48:16.044Z,99.99
2018-11-23T02:49:16.033Z,99.99
2018-11-23T02:50:16.015Z,99.99
2018-11-23T02:51:16.007Z,99.99
2018-11-23T02:52:16.067Z,99.99
2018-11-23T02:53:15.992Z,99.99
2018-11-23T02:54:15.979Z,99.99
2018-11-23T02:55:15.965Z,99.99
2018-11-23T02:56:16.004Z,99.99
2018-11-23T02:57:15.960Z,99.99
2018-11-23T02:58:15.980Z,99.99
2018-11-23T02:59:15.996Z,99.99
2018-11-23T03:00:15.932Z,99.99
2018-11-23T03:01:15.938Z,99.99
2018-11-23T03:02:15.946Z,99.99
2018-11-23T03:03:15.940Z,99.99
2018-11-23T03:04:15.928Z,99.99
2018-11-23T03:05:15.917Z,99.99
2018-11-23T03:06:15.898Z,99.99
2018-11-23T03:07:15.893Z,99.99
2018-11-23T03:08:15.876Z,99.99
2018-11-23T03:09:15.911Z,99.99
2018-11-23T03:10:16.127Z,99.99
2018-11-23T03:11:15.897Z,99.99
2018-11-23T03:12:15.891Z,99.99
2018-11-23T03:13:15.849Z,99.99
2018-11-23T03:14:15.862Z,99.99
2018-11-23T03:15:15.830Z,99.99
2018-11-23T03:16:15.832Z,99.99
2018-11-23T03:17:15.802Z,99.99
2018-11-23T03:18:15.852Z,99.99
2018-11-23T03:19:15.779Z,99.99
2018-11-23T03:20:15.791Z,99.99
2018-11-23T03:21:15.784Z,99.99
2018-11-23T03:22:15.772Z,99.99
2018-11-23T03:23:15.768Z,99.99
2018-11-23T03:24:15.744Z,99.99
2018-11-23T03:25:15.746Z,99.99
2018-11-23T03:26:15.998Z,99.99
2018-11-23T03:27:15.740Z,99.99
2018-11-23T03:28:15.722Z,99.99
2018-11-23T03:29:15.709Z,99.99
2018-11-23T03:30:15.738Z,99.99
2018-11-23T03:31:15.694Z,99.99
2018-11-23T03:32:15.685Z,99.99
2018-11-23T03:33:15.730Z,99.99
2018-11-23T03:34:15.684Z,99.99
2018-11-23T03:35:15.728Z,99.99
2018-11-23T03:36:15.674Z,99.99
2018-11-23T03:37:15.661Z,99.99
2018-11-23T03:38:15.650Z,99.99
2018-11-23T03:39:15.658Z,99.99
2018-11-23T03:40:15.616Z,99.99
2018-11-23T03:41:15.624Z,99.99
2018-11-23T03:42:15.622Z,99.99
2018-11-23T03:43:15.897Z,99.99
2018-11-23T03:44:15.604Z,99.99
2018-11-23T03:45:15.608Z,99.99
2018-11-23T03:46:15.580Z,99.99
2018-11-23T03:47:15.564Z,99.99
2018-11-23T03:48:15.621Z,99.99
2018-11-23T03:49:15.559Z,99.99
2018-11-23T03:50:15.581Z,99.99
2018-11-23T03:51:15.527Z,99.99
2018-11-23T03:52:15.558Z,99.99
2018-11-23T03:53:15.531Z,99.99
2018-11-23T03:54:15.793Z,99.99
2018-11-23T03:55:15.534Z,99.99
2018-11-23T03:56:15.504Z,99.99
2018-11-23T03:57:15.552Z,99.99
2018-11-23T03:58:15.503Z,99.99
2018-11-23T03:59:15.490Z,99.99
2018-11-23T04:00:17.278Z,99.99
2018-11-23T04:01:15.477Z,99.99
2018-11-23T04:02:15.453Z,99.99
2018-11-23T04:03:15.451Z,99.99
2018-11-23T04:04:15.446Z,99.99
2018-11-23T04:05:15.443Z,99.99
2018-11-23T04:06:15.421Z,99.99
2018-11-23T04:07:15.419Z,99.99
2018-11-23T04:08:15.428Z,99.99
2018-11-23T04:09:15.402Z,99.99
2018-11-23T04:10:15.405Z,99.99
2018-11-23T04:11:15.374Z,99.99
2018-11-23T04:12:15.370Z,99.99
2018-11-23T04:13:15.374Z,99.99
2018-11-23T04:14:15.369Z,99.99
2018-11-23T04:15:15.344Z,99.99
2018-11-23T04:16:15.367Z,99.99
2018-11-23T04:17:15.321Z,99.99
2018-11-23T04:18:15.353Z,99.99
2018-11-23T04:19:15.347Z,99.99
2018-11-23T04:20:15.330Z,99.99
2018-11-23T04:21:15.291Z,99.99
2018-11-23T04:22:15.322Z,99.99
2018-11-23T04:23:15.289Z,99.99
2018-11-23T04:24:15.302Z,99.99
2018-11-23T04:25:15.273Z,99.99
2018-11-23T04:26:15.276Z,99.99
2018-11-23T04:27:15.264Z,99.99
2018-11-23T04:28:15.256Z,99.99
2018-11-23T04:29:15.245Z,99.99
2018-11-23T04:30:15.259Z,99.99
2018-11-23T04:31:15.254Z,99.99
2018-11-23T04:32:15.224Z,99.99
2018-11-23T04:33:15.233Z,99.99
2018-11-23T04:34:15.201Z,99.99
2018-11-23T04:35:15.206Z,99.99
2018-11-23T04:36:15.170Z,99.99
2018-11-23T04:37:15.157Z,99.99
2018-11-23T04:38:15.170Z,99.99
2018-11-23T04:39:15.153Z,99.99
2018-11-23T04:40:15.176Z,99.99
2018-11-23T04:41:15.128Z,99.99
2018-11-23T04:42:15.154Z,99.99
2018-11-23T04:43:15.155Z,99.99
2018-11-23T04:44:15.114Z,99.99
2018-11-23T04:45:15.103Z,99.99
2018-11-23T04:46:15.108Z,99.99
2018-11-23T04:47:15.123Z,99.99
2018-11-23T04:48:15.105Z,99.99
2018-11-23T04:49:15.105Z,99.99
2018-11-23T04:50:15.089Z,99.99
2018-11-23T04:51:15.080Z,99.99
2018-11-23T04:52:15.065Z,99.99
2018-11-23T04:53:15.036Z,99.99
2018-11-23T04:54:15.049Z,99.99
2018-11-23T04:55:15.042Z,99.99
2018-11-23T04:56:15.022Z,99.99
2018-11-23T04:57:15.063Z,99.99
2018-11-23T04:58:15.020Z,99.99
2018-11-23T04:59:15.013Z,99.99
2018-11-23T05:00:14.984Z,99.99
2018-11-23T05:01:14.980Z,99.99
2018-11-23T05:02:14.979Z,99.99
2018-11-23T05:03:14.981Z,99.99
2018-11-23T05:04:14.966Z,99.99
2018-11-23T05:05:14.964Z,99.99
2018-11-23T05:06:14.944Z,99.99
2018-11-23T05:07:14.948Z,99.99
2018-11-23T05:08:14.913Z,99.99
2018-11-23T05:09:14.912Z,99.99
2018-11-23T05:10:14.936Z,99.99
2018-11-23T05:11:14.926Z,99.99
2018-11-23T05:12:14.899Z,99.99
2018-11-23T05:13:14.895Z,99.99
2018-11-23T05:14:14.889Z,99.99
2018-11-23T05:15:14.876Z,99.99
2018-11-23T05:16:14.860Z,99.99
2018-11-23T05:17:14.843Z,99.99
2018-11-23T05:18:14.884Z,99.99
2018-11-23T05:19:14.867Z,99.99
2018-11-23T05:20:14.829Z,99.99
2018-11-23T05:21:14.842Z,99.99
2018-11-23T05:22:14.834Z,99.99
2018-11-23T05:23:14.839Z,99.99
2018-11-23T05:24:14.786Z,99.99
2018-11-23T05:25:14.793Z,99.99
2018-11-23T05:26:14.795Z,99.99
2018-11-23T05:27:15.084Z,99.99
2018-11-23T05:28:14.784Z,99.99
2018-11-23T05:29:14.760Z,99.99
2018-11-23T05:30:14.738Z,99.99
2018-11-23T05:31:14.784Z,99.99
2018-11-23T05:32:14.741Z,99.99
2018-11-23T05:33:14.715Z,99.99
2018-11-23T05:34:14.725Z,99.99
2018-11-23T05:35:14.725Z,99.99
2018-11-23T05:36:14.700Z,99.99
2018-11-23T05:37:14.701Z,99.99
2018-11-23T05:38:14.679Z,99.99
2018-11-23T05:39:14.694Z,99.99
2018-11-23T05:40:14.661Z,99.99
2018-11-23T05:41:14.666Z,99.99
2018-11-23T05:42:14.669Z,99.99
2018-11-23T05:43:14.644Z,99.99
2018-11-23T05:44:14.632Z,99.99
2018-11-23T05:45:14.620Z,99.99
2018-11-23T05:46:14.605Z,99.99
2018-11-23T05:47:14.614Z,99.99
2018-11-23T05:48:14.604Z,99.99
2018-11-23T05:49:14.597Z,99.99
2018-11-23T05:50:14.578Z,99.99
2018-11-23T05:51:14.572Z,99.99
2018-11-23T05:52:14.554Z,99.99
2018-11-23T05:53:14.861Z,99.99
2018-11-23T05:54:14.551Z,99.99
2018-11-23T05:55:14.545Z,99.99
2018-11-23T05:56:14.520Z,99.99
2018-11-23T05:57:14.573Z,99.99
2018-11-23T05:58:14.524Z,99.99
2018-11-23T05:59:14.488Z,99.99
2018-11-23T06:00:14.513Z,99.99
2018-11-23T06:01:14.512Z,99.99
2018-11-23T06:02:14.517Z,99.99
2018-11-23T06:03:14.476Z,99.99
2018-11-23T06:04:14.747Z,99.99
2018-11-23T06:05:14.517Z,99.99
2018-11-23T06:06:14.446Z,99.99
2018-11-23T06:07:14.428Z,99.99
2018-11-23T06:08:14.434Z,99.99
2018-11-23T06:09:14.444Z,99.99
2018-11-23T06:10:14.431Z,99.99
2018-11-23T06:11:14.409Z,99.99
2018-11-23T06:12:14.386Z,99.99
2018-11-23T06:13:14.406Z,99.99
2018-11-23T06:14:14.363Z,99.99
2018-11-23T06:15:14.355Z,99.99
2018-11-23T06:16:14.377Z,99.99
2018-11-23T06:17:14.343Z,99.99
2018-11-23T06:18:14.329Z,99.99
2018-11-23T06:19:14.355Z,99.99
2018-11-23T06:20:14.314Z,99.99
2018-11-23T06:21:14.339Z,99.99
2018-11-23T06:22:14.352Z,99.99
2018-11-23T06:23:14.309Z,99.99
2018-11-23T06:24:14.319Z,99.99
2018-11-23T06:25:14.775Z,99.99
2018-11-23T06:26:14.267Z,99.99
2018-11-23T06:27:14.271Z,99.99
2018-11-23T06:28:14.245Z,99.99
2018-11-23T06:29:14.253Z,99.99
2018-11-23T06:30:14.261Z,99.99
2018-11-23T06:31:14.296Z,99.99
2018-11-23T06:32:14.233Z,99.99
2018-11-23T06:33:14.227Z,99.99
2018-11-23T06:34:14.227Z,99.99
2018-11-23T06:35:14.209Z,99.99
2018-11-23T06:36:14.206Z,99.99
2018-11-23T06:37:14.180Z,99.99
2018-11-23T06:38:14.158Z,99.99
2018-11-23T06:39:14.168Z,99.99
2018-11-23T06:40:14.157Z,99.99
2018-11-23T06:41:14.160Z,99.99
2018-11-23T06:42:14.166Z,99.99
2018-11-23T06:43:14.130Z,99.99
2018-11-23T06:44:14.152Z,99.99
2018-11-23T06:45:14.128Z,99.99
2018-11-23T06:46:14.145Z,99.99
2018-11-23T06:47:14.108Z,99.99
2018-11-23T06:48:14.092Z,99.99
2018-11-23T06:49:14.077Z,99.99
2018-11-23T06:50:14.060Z,99.99
2018-11-23T06:51:14.058Z,99.99
2018-11-23T06:52:14.070Z,99.99
2018-11-23T06:53:14.051Z,99.99
2018-11-23T06:54:14.459Z,99.99
2018-11-23T06:55:14.036Z,99.99
2018-11-23T06:56:14.016Z,99.99
2018-11-23T06:57:14.014Z,99.99
2018-11-23T06:58:13.993Z,99.99
2018-11-23T06:59:14.008Z,99.99
2018-11-23T07:00:14.007Z,99.99
2018-11-23T07:01:13.993Z,99.99
2018-11-23T07:02:13.975Z,99.99
2018-11-23T07:03:13.965Z,99.99
2018-11-23T07:04:13.942Z,99.99
2018-11-23T07:05:13.960Z,99.99
2018-11-23T07:06:13.942Z,99.99
2018-11-23T07:07:13.942Z,99.99
2018-11-23T07:08:13.925Z,99.99
2018-11-23T07:09:13.916Z,99.99
2018-11-23T07:10:13.924Z,99.99
2018-11-23T07:11:13.907Z,99.99
2018-11-23T07:12:13.885Z,99.99
2018-11-23T07:13:13.931Z,99.99
2018-11-23T07:14:13.863Z,99.99
2018-11-23T07:15:13.863Z,99.99
2018-11-23T07:16:14.121Z,99.99
2018-11-23T07:17:13.853Z,99.99
2018-11-23T07:18:13.819Z,99.99
2018-11-23T07:19:13.823Z,99.99
2018-11-23T07:20:13.830Z,99.99
2018-11-23T07:21:14.073Z,99.99
2018-11-23T07:22:13.813Z,99.99
2018-11-23T07:23:13.793Z,99.99
2018-11-23T07:24:13.793Z,99.99
2018-11-23T07:25:13.797Z,99.99
2018-11-23T07:26:14.670Z,99.99
2018-11-23T07:27:13.769Z,99.99
2018-11-23T07:28:15.623Z,99.99
2018-11-23T07:29:13.728Z,99.99
2018-11-23T07:30:13.751Z,99.99
2018-11-23T07:31:13.717Z,99.99
2018-11-23T07:32:13.734Z,99.99
2018-11-23T07:33:13.705Z,99.99
2018-11-23T07:34:13.695Z,99.99
2018-11-23T07:35:13.693Z,99.99
2018-11-23T07:36:13.667Z,99.99
2018-11-23T07:37:13.680Z,99.99
2018-11-23T07:38:13.663Z,99.99
2018-11-23T07:39:13.707Z,99.99
2018-11-23T07:40:13.680Z,99.99
2018-11-23T07:41:13.641Z,99.99
2018-11-23T07:42:13.619Z,99.99
2018-11-23T07:43:13.629Z,99.99
2018-11-23T07:44:13.592Z,99.99
2018-11-23T07:45:13.595Z,99.99
2018-11-23T07:46:13.618Z,99.99
2018-11-23T07:47:13.644Z,99.99
2018-11-23T07:48:13.583Z,99.99
2018-11-23T07:49:13.572Z,99.99
2018-11-23T07:50:13.552Z,99.99
2018-11-23T07:51:13.546Z,99.99
2018-11-23T07:52:13.539Z,99.99
2018-11-23T07:53:13.534Z,99.99
2018-11-23T07:54:13.537Z,99.99
2018-11-23T07:55:13.508Z,99.99
2018-11-23T07:56:13.502Z,99.99
2018-11-23T07:57:13.499Z,99.99
2018-11-23T07:58:13.531Z,99.99
2018-11-23T07:59:13.477Z,99.99
2018-11-23T08:00:13.488Z,99.99
2018-11-23T08:01:13.448Z,99.99
2018-11-23T08:02:13.462Z,99.99
2018-11-23T08:03:13.435Z,99.99
2018-11-23T08:04:13.499Z,99.99
2018-11-23T08:05:13.433Z,99.99
2018-11-23T08:06:13.436Z,99.99
2018-11-23T08:07:13.413Z,99.99
2018-11-23T08:08:13.398Z,99.99
2018-11-23T08:09:13.398Z,99.99
2018-11-23T08:10:13.386Z,99.99
2018-11-23T08:11:13.380Z,99.99
2018-11-23T08:12:13.370Z,99.99
2018-11-23T08:13:13.414Z,99.99
2018-11-23T08:14:13.373Z,99.99
2018-11-23T08:15:13.367Z,99.99
2018-11-23T08:16:13.379Z,99.99
2018-11-23T08:17:13.308Z,99.99
2018-11-23T08:18:13.379Z,99.99
2018-11-23T08:19:13.331Z,99.99
2018-11-23T08:20:13.307Z,99.99
2018-11-23T08:21:13.335Z,99.99
2018-11-23T08:22:13.268Z,99.99
2018-11-23T08:23:13.279Z,99.99
2018-11-23T08:24:13.276Z,99.99
2018-11-23T08:25:13.259Z,99.99
2018-11-23T08:26:13.248Z,99.99
2018-11-23T08:27:13.246Z,99.99
2018-11-23T08:28:13.230Z,99.99
2018-11-23T08:29:13.230Z,99.99
2018-11-23T08:30:13.232Z,99.99
2018-11-23T08:31:13.202Z,99.99
2018-11-23T08:32:13.182Z,99.99
2018-11-23T08:33:13.190Z,99.99
2018-11-23T08:34:13.187Z,99.99
2018-11-23T08:35:13.228Z,99.99
2018-11-23T08:36:13.165Z,99.99
2018-11-23T08:37:13.156Z,99.99
2018-11-23T08:38:13.160Z,99.99
2018-11-23T08:39:13.136Z,99.99
2018-11-23T08:40:13.154Z,99.99
2018-11-23T08:41:13.161Z,99.99
2018-11-23T08:42:13.108Z,99.99
2018-11-23T08:43:13.156Z,99.99
2018-11-23T08:44:13.108Z,99.99
2018-11-23T08:45:13.082Z,99.99
2018-11-23T08:46:13.068Z,99.99
2018-11-23T08:47:13.094Z,99.99
2018-11-23T08:48:13.069Z,99.99
2018-11-23T08:49:13.111Z,99.99
2018-11-23T08:50:13.036Z,99.99
2018-11-23T08:51:13.044Z,99.99
2018-11-23T08:52:13.019Z,99.99
2018-11-23T08:53:13.031Z,99.99
2018-11-23T08:54:12.995Z,99.99
2018-11-23T08:55:13.007Z,99.99
2018-11-23T08:56:13.017Z,99.99
2018-11-23T08:57:12.975Z,99.99
2018-11-23T08:58:13.221Z,99.99
2018-11-23T08:59:12.980Z,99.99
2018-11-23T09:00:12.981Z,99.99
2018-11-23T09:01:12.968Z,99.99
2018-11-23T09:02:12.971Z,99.99
2018-11-23T09:03:12.935Z,99.99
2018-11-23T09:04:12.945Z,99.99
2018-11-23T09:05:12.932Z,99.99
2018-11-23T09:06:12.908Z,99.99
2018-11-23T09:07:12.911Z,99.99
2018-11-23T09:08:12.875Z,99.99
2018-11-23T09:09:12.933Z,99.99
2018-11-23T09:10:12.852Z,99.99
2018-11-23T09:11:12.910Z,99.99
2018-11-23T09:12:12.841Z,99.99
2018-11-23T09:13:12.849Z,99.99
2018-11-23T09:14:12.843Z,99.99
2018-11-23T09:15:12.825Z,99.99
2018-11-23T09:16:12.849Z,99.99
2018-11-23T09:17:12.823Z,99.99
2018-11-23T09:18:12.809Z,99.99
2018-11-23T09:19:12.825Z,99.99
2018-11-23T09:20:12.809Z,99.99
2018-11-23T09:21:12.772Z,99.99
2018-11-23T09:22:12.782Z,99.99
2018-11-23T09:23:12.787Z,99.99
2018-11-23T09:24:12.810Z,99.99
2018-11-23T09:25:12.764Z,99.99
2018-11-23T09:26:12.799Z,99.99
2018-11-23T09:27:12.731Z,99.99
2018-11-23T09:28:12.734Z,99.99
2018-11-23T09:29:12.721Z,99.99
2018-11-23T09:30:12.716Z,99.99
2018-11-23T09:31:12.717Z,99.99
2018-11-23T09:32:12.726Z,99.99
2018-11-23T09:33:12.704Z,99.99
2018-11-23T09:34:12.675Z,99.99
2018-11-23T09:35:12.661Z,99.99
2018-11-23T09:36:12.655Z,99.99
2018-11-23T09:37:12.719Z,99.99
2018-11-23T09:38:12.654Z,99.99
2018-11-23T09:39:12.632Z,99.99
2018-11-23T09:40:12.625Z,99.99
2018-11-23T09:41:12.633Z,99.99
2018-11-23T09:42:12.623Z,99.99
2018-11-23T09:43:12.593Z,99.99
2018-11-23T09:44:12.612Z,99.99
2018-11-23T09:45:12.598Z,99.99
2018-11-23T09:46:12.605Z,99.99
2018-11-23T09:47:12.589Z,99.99
2018-11-23T09:48:12.594Z,99.99
2018-11-23T09:49:12.575Z,99.99
2018-11-23T09:50:12.566Z,99.99
2018-11-23T09:51:12.558Z,99.99
2018-11-23T09:52:12.539Z,99.99
2018-11-23T09:53:12.564Z,99.99
2018-11-23T09:54:12.581Z,99.99
2018-11-23T09:55:12.538Z,99.99
2018-11-23T09:56:12.516Z,99.99
2018-11-23T09:57:12.494Z,99.99
2018-11-23T09:58:12.500Z,99.99
2018-11-23T09:59:12.485Z,99.99
2018-11-23T10:00:12.503Z,99.99
2018-11-23T10:01:12.457Z,99.99
2018-11-23T10:02:12.472Z,99.99
2018-11-23T10:03:12.688Z,99.99
2018-11-23T10:04:12.443Z,99.99
2018-11-23T10:05:12.429Z,99.99
2018-11-23T10:06:12.421Z,99.99
2018-11-23T10:07:12.434Z,99.99
2018-11-23T10:08:12.412Z,99.99
2018-11-23T10:09:12.417Z,99.99
2018-11-23T10:10:12.396Z,99.99
2018-11-23T10:11:12.407Z,99.99
2018-11-23T10:12:12.397Z,99.99
2018-11-23T10:13:12.390Z,99.99
2018-11-23T10:14:12.374Z,99.99
2018-11-23T10:15:12.366Z,99.99
2018-11-23T10:16:12.366Z,99.99
2018-11-23T10:17:12.350Z,99.99
2018-11-23T10:18:12.359Z,99.99
2018-11-23T10:19:12.335Z,99.99
2018-11-23T10:20:12.328Z,99.99
2018-11-23T10:21:12.323Z,99.99
2018-11-23T10:22:12.294Z,99.99
2018-11-23T10:23:12.316Z,99.99
2018-11-23T10:24:12.299Z,99.99
2018-11-23T10:25:12.302Z,99.99
2018-11-23T10:26:12.290Z,99.99
2018-11-23T10:27:12.272Z,99.99
2018-11-23T10:28:12.266Z,99.99
2018-11-23T10:29:12.279Z,99.99
2018-11-23T10:30:12.253Z,99.99
2018-11-23T10:31:12.248Z,99.99
2018-11-23T10:32:12.252Z,99.99
2018-11-23T10:33:12.231Z,99.99
2018-11-23T10:34:12.238Z,99.99
2018-11-23T10:35:12.230Z,99.99
2018-11-23T10:36:12.234Z,99.99
2018-11-23T10:37:12.226Z,99.99
2018-11-23T10:38:12.214Z,99.99
2018-11-23T10:39:12.182Z,99.99
2018-11-23T10:40:12.187Z,99.99
2018-11-23T10:41:12.187Z,99.99
2018-11-23T10:42:12.159Z,99.99
2018-11-23T10:43:12.162Z,99.99
2018-11-23T10:44:12.163Z,99.99
2018-11-23T10:45:12.147Z,99.99
2018-11-23T10:46:12.158Z,99.99
2018-11-23T10:47:12.144Z,99.99
2018-11-23T10:48:12.167Z,99.99
2018-11-23T10:49:12.172Z,99.99
2018-11-23T10:50:12.125Z,99.99
2018-11-23T10:51:12.086Z,99.99
2018-11-23T10:52:12.097Z,99.99
2018-11-23T10:53:12.071Z,99.99
2018-11-23T10:54:12.058Z,99.99
2018-11-23T10:55:12.080Z,99.99
2018-11-23T10:56:12.079Z,99.99
2018-11-23T10:57:12.062Z,99.99
2018-11-23T10:58:12.061Z,99.99
2018-11-23T10:59:12.044Z,99.99
2018-11-23T11:00:12.043Z,99.99
2018-11-23T11:01:12.058Z,99.99
2018-11-23T11:02:12.056Z,99.99
2018-11-23T11:03:12.045Z,99.99
2018-11-23T11:04:12.021Z,99.99
2018-11-23T11:05:12.004Z,99.99
2018-11-23T11:06:11.990Z,99.99
2018-11-23T11:07:12.013Z,99.99
2018-11-23T11:08:12.010Z,99.99
2018-11-23T11:09:11.997Z,99.99
2018-11-23T11:10:11.989Z,99.99
2018-11-23T11:11:13.795Z,99.99
2018-11-23T11:12:11.964Z,99.99
2018-11-23T11:13:11.972Z,99.99
2018-11-23T11:14:11.945Z,99.99
2018-11-23T11:15:11.948Z,99.99
2018-11-23T11:16:11.935Z,99.99
2018-11-23T11:17:11.935Z,99.99
2018-11-23T11:18:11.968Z,99.99
2018-11-23T11:19:11.930Z,99.99
2018-11-23T11:20:11.934Z,99.99
2018-11-23T11:21:11.923Z,99.99
2018-11-23T11:22:11.905Z,99.99
2018-11-23T11:23:11.876Z,99.99
2018-11-23T11:24:11.883Z,99.99
2018-11-23T11:25:11.865Z,99.99
2018-11-23T11:26:11.876Z,99.99
2018-11-23T11:27:11.876Z,99.99
2018-11-23T11:28:11.870Z,99.99
2018-11-23T11:29:11.861Z,99.99
2018-11-23T11:30:11.859Z,99.99
2018-11-23T11:31:11.852Z,99.99
2018-11-23T11:32:11.901Z,99.99
2018-11-23T11:33:11.841Z,99.99
2018-11-23T11:34:11.835Z,99.99
2018-11-23T11:35:11.842Z,99.99
2018-11-23T11:36:11.832Z,99.99
2018-11-23T11:37:11.819Z,99.99
2018-11-23T11:38:11.828Z,99.99
2018-11-23T11:39:11.838Z,99.99
2018-11-23T11:40:11.789Z,99.99
2018-11-23T11:41:11.775Z,99.99
2018-11-23T11:42:11.796Z,99.99
2018-11-23T11:43:11.763Z,99.99
2018-11-23T11:44:11.782Z,99.99
2018-11-23T11:45:11.775Z,99.99
2018-11-23T11:46:11.768Z,99.99
2018-11-23T11:47:11.747Z,99.99
2018-11-23T11:48:11.751Z,99.99
2018-11-23T11:49:11.739Z,99.99
2018-11-23T11:50:11.746Z,99.99
2018-11-23T11:51:11.788Z,99.99
2018-11-23T11:52:11.744Z,99.99
2018-11-23T11:53:11.724Z,99.99
2018-11-23T11:54:11.718Z,99.99
2018-11-23T11:55:11.720Z,99.99
2018-11-23T11:56:11.698Z,99.99
2018-11-23T11:57:11.709Z,99.99
2018-11-23T11:58:11.699Z,99.99
2018-11-23T11:59:11.696Z,99.99
2018-11-23T12:00:11.699Z,99.99
2018-11-23T12:01:11.709Z,99.99
2018-11-23T12:02:11.668Z,99.99
2018-11-23T12:03:11.686Z,99.99
2018-11-23T12:04:11.667Z,99.99
2018-11-23T12:05:11.687Z,99.99
2018-11-23T12:06:11.654Z,99.99
2018-11-23T12:07:11.670Z,99.99
2018-11-23T12:08:11.655Z,99.99
2018-11-23T12:09:11.669Z,99.99
2018-11-23T12:10:11.656Z,99.99
2018-11-23T12:11:11.653Z,99.22
2018-11-23T12:12:11.644Z,99.41
2018-11-23T12:13:12.052Z,98.78
2018-11-23T12:14:11.655Z,96.89
2018-11-23T12:15:11.644Z,96.50
2018-11-23T12:16:11.674Z,96.40
2018-11-23T12:17:11.644Z,97.17
2018-11-23T12:18:11.620Z,97.37
2018-11-23T12:19:11.620Z,98.49
2018-11-23T12:20:11.630Z,99.55
2018-11-23T12:21:11.610Z,99.12
2018-11-23T12:22:11.622Z,98.58
2018-11-23T12:23:11.675Z,95.09
2018-11-23T12:24:11.614Z,95.57
2018-11-23T12:25:11.632Z,97.08
2018-11-23T12:26:11.602Z,97.71
2018-11-23T12:27:11.580Z,95.47
2018-11-23T12:28:11.596Z,95.62
2018-11-23T12:29:11.606Z,94.06
2018-11-23T12:30:11.619Z,92.90
2018-11-23T12:31:11.612Z,93.23
2018-11-23T12:32:11.577Z,90.22
2018-11-23T12:33:11.590Z,88.95
2018-11-23T12:34:11.616Z,90.36
2018-11-23T12:35:11.589Z,91.73
2018-11-23T12:36:11.572Z,91.58
2018-11-23T12:37:11.565Z,88.80
2018-11-23T12:38:11.928Z,89.48
2018-11-23T12:39:11.580Z,86.95
2018-11-23T12:40:11.591Z,87.43
2018-11-23T12:41:11.572Z,86.27
2018-11-23T12:42:11.566Z,84.75
2018-11-23T12:43:11.557Z,85.19
2018-11-23T12:44:11.566Z,87.57
2018-11-23T12:45:11.567Z,86.80
2018-11-23T12:46:11.562Z,85.33
2018-11-23T12:47:11.559Z,84.94
2018-11-23T12:48:11.559Z,85.04
2018-11-23T12:49:11.546Z,85.92
2018-11-23T12:50:11.547Z,84.94
2018-11-23T12:51:11.534Z,84.56
2018-11-23T12:52:11.529Z,85.10